sensor_id;sensor_type;location;lat;lon;timestamp;temperature;humidity
58513;DHT22;44302;47.914;10.642;2022-09-23T00:00:30;5.60;99.90
58513;DHT22;44302;47.914;10.642;2022-09-23T00:02:56;5.60;99.90
58513;DHT22;44302;47.914;10.642;2022-09-23T00:05:22;5.60;99.90
58513;DHT22;44302;47.914;10.642;2022-09-23T00:07:48;5.60;99.90
58513;DHT22;44302;47.914;10.642;2022-09-23T00:10:14;5.50;99.90
58513;DHT22;44302;47.914;10.642;2022-09-23T00:12:39;5.40;99.90
58513;DHT22;44302;47.914;10.642;2022-09-23T00:15:06;5.40;99.90
58513;DHT22;44302;47.914;10.642;2022-09-23T00:17:31;5.40;99.90
58513;DHT22;44302;47.914;10.642;2022-09-23T00:22:23;5.30;99.90
58513;DHT22;44302;47.914;10.642;2022-09-23T00:27:15;5.30;99.90
58513;DHT22;44302;47.914;10.642;2022-09-23T00:29:41;5.40;99.90
58513;DHT22;44302;47.914;10.642;2022-09-23T00:32:06;5.40;99.90
58513;DHT22;44302;47.914;10.642;2022-09-23T00:36:58;5.30;99.90
58513;DHT22;44302;47.914;10.642;2022-09-23T00:39:24;5.30;99.90
58513;DHT22;44302;47.914;10.642;2022-09-23T00:41:51;5.30;99.90
58513;DHT22;44302;47.914;10.642;2022-09-23T00:47:08;5.30;99.90
58513;DHT22;44302;47.914;10.642;2022-09-23T00:49:35;5.30;99.90
58513;DHT22;44302;47.914;10.642;2022-09-23T00:52:06;5.20;99.90
58513;DHT22;44302;47.914;10.642;2022-09-23T00:54:33;5.20;99.90
58513;DHT22;44302;47.914;10.642;2022-09-23T00:56:59;5.10;99.90
58513;DHT22;44302;47.914;10.642;2022-09-23T00:59:26;5.10;99.90
58513;DHT22;44302;47.914;10.642;2022-09-23T05:42:37;4.50;99.90
58513;DHT22;44302;47.914;10.642;2022-09-23T05:45:03;4.60;99.90
58513;DHT22;44302;47.914;10.642;2022-09-23T07:03:10;7.00;99.90
58513;DHT22;44302;47.914;10.642;2022-09-23T07:05:36;7.00;99.90
58513;DHT22;44302;47.914;10.642;2022-09-23T07:08:06;7.00;99.90
58513;DHT22;44302;47.914;10.642;2022-09-23T07:10:35;7.10;99.90
58513;DHT22;44302;47.914;10.642;2022-09-23T07:13:01;7.10;99.90
58513;DHT22;44302;47.914;10.642;2022-09-23T07:15:27;7.30;99.90
58513;DHT22;44302;47.914;10.642;2022-09-23T07:17:53;7.40;99.90
58513;DHT22;44302;47.914;10.642;2022-09-23T07:20:20;7.50;99.90
58513;DHT22;44302;47.914;10.642;2022-09-23T07:22:51;7.60;99.90
58513;DHT22;44302;47.914;10.642;2022-09-23T07:25:18;7.70;99.90
58513;DHT22;44302;47.914;10.642;2022-09-23T07:27:44;7.90;99.90
58513;DHT22;44302;47.914;10.642;2022-09-23T07:30:12;8.00;99.90
58513;DHT22;44302;47.914;10.642;2022-09-23T07:32:38;8.20;99.90
58513;DHT22;44302;47.914;10.642;2022-09-23T07:35:05;8.30;99.90
58513;DHT22;44302;47.914;10.642;2022-09-23T07:37:31;8.50;99.90
58513;DHT22;44302;47.914;10.642;2022-09-23T07:39:57;8.70;99.90
58513;DHT22;44302;47.914;10.642;2022-09-23T07:42:22;8.90;99.90
58513;DHT22;44302;47.914;10.642;2022-09-23T07:44:48;9.10;99.90
58513;DHT22;44302;47.914;10.642;2022-09-23T07:47:14;9.30;99.90
58513;DHT22;44302;47.914;10.642;2022-09-23T07:49:40;9.50;99.90
58513;DHT22;44302;47.914;10.642;2022-09-23T07:52:06;9.90;99.90
58513;DHT22;44302;47.914;10.642;2022-09-23T07:54:31;10.20;99.90
58513;DHT22;44302;47.914;10.642;2022-09-23T07:56:58;10.50;99.90
58513;DHT22;44302;47.914;10.642;2022-09-23T07:59:23;10.80;99.90
58513;DHT22;44302;47.914;10.642;2022-09-23T08:01:51;11.20;99.90
58513;DHT22;44302;47.914;10.642;2022-09-23T08:04:22;11.60;99.90
58513;DHT22;44302;47.914;10.642;2022-09-23T08:06:53;11.90;99.90
58513;DHT22;44302;47.914;10.642;2022-09-23T08:09:21;12.20;99.90
58513;DHT22;44302;47.914;10.642;2022-09-23T08:11:48;12.50;99.90
58513;DHT22;44302;47.914;10.642;2022-09-23T08:14:15;12.80;99.90
58513;DHT22;44302;47.914;10.642;2022-09-23T08:16:43;13.10;99.90
58513;DHT22;44302;47.914;10.642;2022-09-23T08:19:10;13.40;99.90
58513;DHT22;44302;47.914;10.642;2022-09-23T08:21:36;13.70;99.90
58513;DHT22;44302;47.914;10.642;2022-09-23T08:24:04;13.80;99.90
58513;DHT22;44302;47.914;10.642;2022-09-23T08:26:30;14.00;99.90
58513;DHT22;44302;47.914;10.642;2022-09-23T08:28:58;14.20;99.90
58513;DHT22;44302;47.914;10.642;2022-09-23T08:31:24;14.50;99.90
58513;DHT22;44302;47.914;10.642;2022-09-23T08:33:54;14.80;99.90
58513;DHT22;44302;47.914;10.642;2022-09-23T08:36:21;15.20;99.90
58513;DHT22;44302;47.914;10.642;2022-09-23T08:38:46;15.80;99.90
58513;DHT22;44302;47.914;10.642;2022-09-23T08:44:21;16.60;99.90
58513;DHT22;44302;47.914;10.642;2022-09-23T08:47:08;17.00;99.90
58513;DHT22;44302;47.914;10.642;2022-09-23T08:50:05;17.40;99.90
58513;DHT22;44302;47.914;10.642;2022-09-23T08:52:52;17.80;99.90
58513;DHT22;44302;47.914;10.642;2022-09-23T08:55:22;18.10;99.90
58513;DHT22;44302;47.914;10.642;2022-09-23T09:01:09;18.10;99.90
58513;DHT22;44302;47.914;10.642;2022-09-23T09:04:00;17.90;99.90
58513;DHT22;44302;47.914;10.642;2022-09-23T09:06:39;17.80;99.90
58513;DHT22;44302;47.914;10.642;2022-09-23T09:09:32;17.90;99.90
58513;DHT22;44302;47.914;10.642;2022-09-23T09:12:07;18.10;99.90
58513;DHT22;44302;47.914;10.642;2022-09-23T09:17:12;18.80;99.90
58513;DHT22;44302;47.914;10.642;2022-09-23T09:19:55;19.20;99.90
58513;DHT22;44302;47.914;10.642;2022-09-23T09:22:54;19.40;99.90
58513;DHT22;44302;47.914;10.642;2022-09-23T09:27:55;19.40;99.90
58513;DHT22;44302;47.914;10.642;2022-09-23T09:30:21;19.60;99.90
58513;DHT22;44302;47.914;10.642;2022-09-23T09:33:03;19.90;99.90
58513;DHT22;44302;47.914;10.642;2022-09-23T09:35:40;20.10;99.90
58513;DHT22;44302;47.914;10.642;2022-09-23T09:38:06;20.20;99.90
58513;DHT22;44302;47.914;10.642;2022-09-23T09:40:33;20.30;99.90
58513;DHT22;44302;47.914;10.642;2022-09-23T09:43:00;20.00;99.90
58513;DHT22;44302;47.914;10.642;2022-09-23T09:48:16;20.10;99.90
58513;DHT22;44302;47.914;10.642;2022-09-23T09:53:28;20.70;99.90
58513;DHT22;44302;47.914;10.642;2022-09-23T09:56:05;20.10;99.90
58513;DHT22;44302;47.914;10.642;2022-09-23T09:58:51;19.60;99.90
58513;DHT22;44302;47.914;10.642;2022-09-23T10:01:21;19.50;99.90
58513;DHT22;44302;47.914;10.642;2022-09-23T10:03:49;19.60;99.90
58513;DHT22;44302;47.914;10.642;2022-09-23T10:06:22;19.90;99.90
58513;DHT22;44302;47.914;10.642;2022-09-23T10:09:18;19.90;99.90
58513;DHT22;44302;47.914;10.642;2022-09-23T10:14:35;20.30;99.90
58513;DHT22;44302;47.914;10.642;2022-09-23T10:17:04;20.10;99.90
58513;DHT22;44302;47.914;10.642;2022-09-23T10:19:31;19.90;99.90
58513;DHT22;44302;47.914;10.642;2022-09-23T10:22:07;20.20;99.90
58513;DHT22;44302;47.914;10.642;2022-09-23T10:24:40;20.40;99.90
58513;DHT22;44302;47.914;10.642;2022-09-23T10:27:11;20.40;99.90
58513;DHT22;44302;47.914;10.642;2022-09-23T10:29:49;20.60;99.90
58513;DHT22;44302;47.914;10.642;2022-09-23T10:32:36;20.90;99.90
58513;DHT22;44302;47.914;10.642;2022-09-23T10:37:40;21.00;99.90
58513;DHT22;44302;47.914;10.642;2022-09-23T10:43:26;21.20;99.90
58513;DHT22;44302;47.914;10.642;2022-09-23T10:46:37;21.40;99.90
58513;DHT22;44302;47.914;10.642;2022-09-23T10:49:26;21.40;99.90
58513;DHT22;44302;47.914;10.642;2022-09-23T10:58:04;22.10;99.30
58513;DHT22;44302;47.914;10.642;2022-09-23T11:12:51;21.20;98.80
58513;DHT22;44302;47.914;10.642;2022-09-23T11:20:56;21.40;96.40
58513;DHT22;44302;47.914;10.642;2022-09-23T11:30:41;20.80;99.60
58513;DHT22;44302;47.914;10.642;2022-09-23T11:32:59;21.20;97.90
58513;DHT22;44302;47.914;10.642;2022-09-23T11:35:59;21.20;97.80
58513;DHT22;44302;47.914;10.642;2022-09-23T11:38:34;21.20;96.30
58513;DHT22;44302;47.914;10.642;2022-09-23T11:41:16;21.00;96.70
58513;DHT22;44302;47.914;10.642;2022-09-23T11:43:45;21.00;96.80
58513;DHT22;44302;47.914;10.642;2022-09-23T11:49:09;20.80;97.20
58513;DHT22;44302;47.914;10.642;2022-09-23T11:54:23;20.10;97.00
58513;DHT22;44302;47.914;10.642;2022-09-23T11:56:57;20.00;97.70
58513;DHT22;44302;47.914;10.642;2022-09-23T12:02:02;19.90;97.20
58513;DHT22;44302;47.914;10.642;2022-09-23T12:04:31;19.90;99.90
58513;DHT22;44302;47.914;10.642;2022-09-23T12:07:27;19.90;98.50
58513;DHT22;44302;47.914;10.642;2022-09-23T12:26:13;20.80;98.60
58513;DHT22;44302;47.914;10.642;2022-09-23T12:28:44;21.20;98.50
58513;DHT22;44302;47.914;10.642;2022-09-23T12:31:34;21.20;98.00
58513;DHT22;44302;47.914;10.642;2022-09-23T12:34:04;21.20;99.30
58513;DHT22;44302;47.914;10.642;2022-09-23T12:36:40;21.40;98.70
58513;DHT22;44302;47.914;10.642;2022-09-23T12:41:57;22.10;99.10
58513;DHT22;44302;47.914;10.642;2022-09-23T12:44:38;22.30;99.60
58513;DHT22;44302;47.914;10.642;2022-09-23T12:49:52;21.70;96.70
58513;DHT22;44302;47.914;10.642;2022-09-23T12:54:48;21.00;97.60
58513;DHT22;44302;47.914;10.642;2022-09-23T13:05:23;20.80;99.10
58513;DHT22;44302;47.914;10.642;2022-09-23T13:08:18;21.30;99.60
58513;DHT22;44302;47.914;10.642;2022-09-23T13:10:55;21.60;97.10
58513;DHT22;44302;47.914;10.642;2022-09-23T13:13:27;21.50;97.20
58513;DHT22;44302;47.914;10.642;2022-09-23T13:18:53;22.10;98.20
58513;DHT22;44302;47.914;10.642;2022-09-23T13:32:19;23.90;96.50
58513;DHT22;44302;47.914;10.642;2022-09-23T13:35:00;24.20;97.50
58513;DHT22;44302;47.914;10.642;2022-09-23T13:37:52;24.80;95.70
58513;DHT22;44302;47.914;10.642;2022-09-23T13:40:24;24.60;97.50
58513;DHT22;44302;47.914;10.642;2022-09-23T13:43:06;24.70;93.80
58513;DHT22;44302;47.914;10.642;2022-09-23T13:45:36;24.10;93.10
58513;DHT22;44302;47.914;10.642;2022-09-23T13:48:12;23.30;92.60
58513;DHT22;44302;47.914;10.642;2022-09-23T13:50:44;23.00;93.40
58513;DHT22;44302;47.914;10.642;2022-09-23T13:53:25;22.70;94.20
58513;DHT22;44302;47.914;10.642;2022-09-23T13:58:28;22.60;93.60
58513;DHT22;44302;47.914;10.642;2022-09-23T14:00:54;22.90;94.20
58513;DHT22;44302;47.914;10.642;2022-09-23T14:03:36;23.10;93.90
58513;DHT22;44302;47.914;10.642;2022-09-23T14:06:09;23.70;92.90
58513;DHT22;44302;47.914;10.642;2022-09-23T14:08:38;24.00;95.70
58513;DHT22;44302;47.914;10.642;2022-09-23T14:11:05;24.60;94.30
58513;DHT22;44302;47.914;10.642;2022-09-23T14:13:39;24.50;90.50
58513;DHT22;44302;47.914;10.642;2022-09-23T14:16:10;23.90;91.60
58513;DHT22;44302;47.914;10.642;2022-09-23T14:18:39;23.90;91.30
58513;DHT22;44302;47.914;10.642;2022-09-23T14:21:20;23.30;91.90
58513;DHT22;44302;47.914;10.642;2022-09-23T14:23:50;23.70;92.10
58513;DHT22;44302;47.914;10.642;2022-09-23T14:26:16;23.70;91.80
58513;DHT22;44302;47.914;10.642;2022-09-23T14:28:43;23.80;92.30
58513;DHT22;44302;47.914;10.642;2022-09-23T14:31:08;23.90;92.20
58513;DHT22;44302;47.914;10.642;2022-09-23T14:33:39;23.80;92.60
58513;DHT22;44302;47.914;10.642;2022-09-23T14:36:07;23.80;91.00
58513;DHT22;44302;47.914;10.642;2022-09-23T14:39:11;23.20;91.80
58513;DHT22;44302;47.914;10.642;2022-09-23T14:41:39;23.00;92.40
58513;DHT22;44302;47.914;10.642;2022-09-23T14:44:06;22.60;92.20
58513;DHT22;44302;47.914;10.642;2022-09-23T14:46:55;22.50;92.90
58513;DHT22;44302;47.914;10.642;2022-09-23T14:49:21;22.10;92.10
58513;DHT22;44302;47.914;10.642;2022-09-23T14:51:58;22.10;93.40
58513;DHT22;44302;47.914;10.642;2022-09-23T14:54:35;22.00;92.00
58513;DHT22;44302;47.914;10.642;2022-09-23T15:02:38;21.20;93.20
58513;DHT22;44302;47.914;10.642;2022-09-23T15:05:18;20.80;93.60
58513;DHT22;44302;47.914;10.642;2022-09-23T15:07:49;20.10;93.90
58513;DHT22;44302;47.914;10.642;2022-09-23T15:12:45;19.00;95.50
58513;DHT22;44302;47.914;10.642;2022-09-23T15:15:14;18.70;95.70
58513;DHT22;44302;47.914;10.642;2022-09-23T15:17:40;18.60;95.60
58513;DHT22;44302;47.914;10.642;2022-09-23T15:20:17;18.50;96.00
58513;DHT22;44302;47.914;10.642;2022-09-23T15:22:50;18.30;96.70
58513;DHT22;44302;47.914;10.642;2022-09-23T15:25:26;18.20;97.20
58513;DHT22;44302;47.914;10.642;2022-09-23T15:30:36;17.90;97.60
58513;DHT22;44302;47.914;10.642;2022-09-23T15:33:03;17.80;97.40
58513;DHT22;44302;47.914;10.642;2022-09-23T15:35:29;17.60;98.30
58513;DHT22;44302;47.914;10.642;2022-09-23T15:37:58;17.50;99.10
58513;DHT22;44302;47.914;10.642;2022-09-23T15:40:33;17.40;99.30
58513;DHT22;44302;47.914;10.642;2022-09-23T15:43:13;17.30;98.30
58513;DHT22;44302;47.914;10.642;2022-09-23T15:45:50;17.30;98.80
58513;DHT22;44302;47.914;10.642;2022-09-23T15:48:23;17.30;99.60
58513;DHT22;44302;47.914;10.642;2022-09-23T15:50:50;17.20;99.60
58513;DHT22;44302;47.914;10.642;2022-09-23T15:53:25;17.10;99.10
58513;DHT22;44302;47.914;10.642;2022-09-23T15:55:51;17.10;99.90
58513;DHT22;44302;47.914;10.642;2022-09-23T15:58:18;17.00;99.90
58513;DHT22;44302;47.914;10.642;2022-09-23T16:00:46;16.90;99.90
58513;DHT22;44302;47.914;10.642;2022-09-23T16:03:15;17.00;99.90
58513;DHT22;44302;47.914;10.642;2022-09-23T16:05:45;16.90;99.90
58513;DHT22;44302;47.914;10.642;2022-09-23T16:08:11;16.90;99.90
58513;DHT22;44302;47.914;10.642;2022-09-23T16:10:37;16.80;99.90
58513;DHT22;44302;47.914;10.642;2022-09-23T16:13:06;16.70;99.90
58513;DHT22;44302;47.914;10.642;2022-09-23T16:15:33;16.70;99.90
58513;DHT22;44302;47.914;10.642;2022-09-23T16:17:59;16.70;99.90
58513;DHT22;44302;47.914;10.642;2022-09-23T16:20:27;16.70;99.90
58513;DHT22;44302;47.914;10.642;2022-09-23T16:25:23;16.50;99.90
58513;DHT22;44302;47.914;10.642;2022-09-23T16:27:53;16.40;99.90
58513;DHT22;44302;47.914;10.642;2022-09-23T16:30:21;16.40;99.90
58513;DHT22;44302;47.914;10.642;2022-09-23T16:32:47;16.30;99.90
58513;DHT22;44302;47.914;10.642;2022-09-23T16:35:13;16.20;99.90
58513;DHT22;44302;47.914;10.642;2022-09-23T16:37:40;16.10;99.90
58513;DHT22;44302;47.914;10.642;2022-09-23T16:40:11;16.10;99.90
58513;DHT22;44302;47.914;10.642;2022-09-23T16:45:08;15.90;99.90
58513;DHT22;44302;47.914;10.642;2022-09-23T16:47:41;15.70;99.90
58513;DHT22;44302;47.914;10.642;2022-09-23T16:50:09;15.70;99.90
58513;DHT22;44302;47.914;10.642;2022-09-23T16:52:35;15.60;99.90
58513;DHT22;44302;47.914;10.642;2022-09-23T16:55:01;15.40;99.90
58513;DHT22;44302;47.914;10.642;2022-09-23T16:57:27;15.30;99.90
58513;DHT22;44302;47.914;10.642;2022-09-23T16:59:54;15.20;99.90
58513;DHT22;44302;47.914;10.642;2022-09-23T17:02:38;15.10;99.90
58513;DHT22;44302;47.914;10.642;2022-09-23T17:05:23;15.00;99.90
58513;DHT22;44302;47.914;10.642;2022-09-23T17:07:48;14.80;99.90
58513;DHT22;44302;47.914;10.642;2022-09-23T17:10:14;14.70;99.90
58513;DHT22;44302;47.914;10.642;2022-09-23T17:12:43;14.60;99.90
58513;DHT22;44302;47.914;10.642;2022-09-23T17:15:09;14.50;99.90
58513;DHT22;44302;47.914;10.642;2022-09-23T17:17:35;14.40;99.90
58513;DHT22;44302;47.914;10.642;2022-09-23T17:20:03;14.30;99.90
58513;DHT22;44302;47.914;10.642;2022-09-23T17:22:29;14.10;99.90
58513;DHT22;44302;47.914;10.642;2022-09-23T17:24:55;14.00;99.90
58513;DHT22;44302;47.914;10.642;2022-09-23T17:27:22;13.90;99.90
58513;DHT22;44302;47.914;10.642;2022-09-23T17:29:49;13.80;99.90
58513;DHT22;44302;47.914;10.642;2022-09-23T17:34:42;13.60;99.90
58513;DHT22;44302;47.914;10.642;2022-09-23T17:37:09;13.60;99.90
58513;DHT22;44302;47.914;10.642;2022-09-23T17:39:35;13.50;99.90
58513;DHT22;44302;47.914;10.642;2022-09-23T17:42:01;13.40;99.90
58513;DHT22;44302;47.914;10.642;2022-09-23T17:44:28;13.30;99.90
58513;DHT22;44302;47.914;10.642;2022-09-23T17:46:53;13.30;99.90
58513;DHT22;44302;47.914;10.642;2022-09-23T17:49:19;13.20;99.90
58513;DHT22;44302;47.914;10.642;2022-09-23T17:51:46;13.10;99.90
58513;DHT22;44302;47.914;10.642;2022-09-23T17:54:11;13.10;99.90
58513;DHT22;44302;47.914;10.642;2022-09-23T17:56:39;13.00;99.90
58513;DHT22;44302;47.914;10.642;2022-09-23T17:59:05;13.00;99.90
58513;DHT22;44302;47.914;10.642;2022-09-23T18:01:31;12.90;99.90
58513;DHT22;44302;47.914;10.642;2022-09-23T18:03:59;12.90;99.90
58513;DHT22;44302;47.914;10.642;2022-09-23T18:06:29;12.90;99.90
58513;DHT22;44302;47.914;10.642;2022-09-23T18:09:00;12.80;99.90
58513;DHT22;44302;47.914;10.642;2022-09-23T18:11:29;12.80;99.90
58513;DHT22;44302;47.914;10.642;2022-09-23T18:14:00;12.80;99.90
58513;DHT22;44302;47.914;10.642;2022-09-23T18:16:30;12.70;99.90
58513;DHT22;44302;47.914;10.642;2022-09-23T18:18:57;12.60;99.90
58513;DHT22;44302;47.914;10.642;2022-09-23T18:21:26;12.60;99.90
58513;DHT22;44302;47.914;10.642;2022-09-23T18:23:51;12.50;99.90
58513;DHT22;44302;47.914;10.642;2022-09-23T18:26:19;12.40;99.90
58513;DHT22;44302;47.914;10.642;2022-09-23T18:28:46;12.30;99.90
58513;DHT22;44302;47.914;10.642;2022-09-23T18:31:12;12.30;99.90
58513;DHT22;44302;47.914;10.642;2022-09-23T18:33:39;12.20;99.90
58513;DHT22;44302;47.914;10.642;2022-09-23T18:36:06;12.20;99.90
58513;DHT22;44302;47.914;10.642;2022-09-23T18:38:32;12.20;99.90
58513;DHT22;44302;47.914;10.642;2022-09-23T18:40:58;12.20;99.90
58513;DHT22;44302;47.914;10.642;2022-09-23T18:43:29;12.10;99.90
58513;DHT22;44302;47.914;10.642;2022-09-23T18:46:04;12.10;99.90
58513;DHT22;44302;47.914;10.642;2022-09-23T18:48:31;12.20;99.90
58513;DHT22;44302;47.914;10.642;2022-09-23T18:51:16;12.10;99.90
58513;DHT22;44302;47.914;10.642;2022-09-23T18:53:43;12.10;99.90
58513;DHT22;44302;47.914;10.642;2022-09-23T18:56:16;12.10;99.90
58513;DHT22;44302;47.914;10.642;2022-09-23T18:58:50;12.10;99.90
58513;DHT22;44302;47.914;10.642;2022-09-23T19:01:16;12.10;99.90
58513;DHT22;44302;47.914;10.642;2022-09-23T19:03:42;12.00;99.90
58513;DHT22;44302;47.914;10.642;2022-09-23T19:06:13;12.00;99.90
58513;DHT22;44302;47.914;10.642;2022-09-23T19:08:43;12.00;99.90
58513;DHT22;44302;47.914;10.642;2022-09-23T19:11:11;11.90;99.90
58513;DHT22;44302;47.914;10.642;2022-09-23T19:13:38;11.80;99.90
58513;DHT22;44302;47.914;10.642;2022-09-23T19:16:13;11.80;99.90
58513;DHT22;44302;47.914;10.642;2022-09-23T19:18:40;11.70;99.90
58513;DHT22;44302;47.914;10.642;2022-09-23T19:21:08;11.60;99.90
58513;DHT22;44302;47.914;10.642;2022-09-23T19:23:34;11.60;99.90
58513;DHT22;44302;47.914;10.642;2022-09-23T19:26:06;11.60;99.90
58513;DHT22;44302;47.914;10.642;2022-09-23T19:28:32;11.50;99.90
58513;DHT22;44302;47.914;10.642;2022-09-23T19:31:08;11.50;99.90
58513;DHT22;44302;47.914;10.642;2022-09-23T19:33:35;11.40;99.90
58513;DHT22;44302;47.914;10.642;2022-09-23T19:36:02;11.50;99.90
58513;DHT22;44302;47.914;10.642;2022-09-23T19:38:29;11.40;99.90
58513;DHT22;44302;47.914;10.642;2022-09-23T19:40:55;11.40;99.90
58513;DHT22;44302;47.914;10.642;2022-09-23T19:43:20;11.40;99.90
58513;DHT22;44302;47.914;10.642;2022-09-23T19:45:53;11.30;99.90
58513;DHT22;44302;47.914;10.642;2022-09-23T19:48:19;11.30;99.90
58513;DHT22;44302;47.914;10.642;2022-09-23T19:50:46;11.30;99.90
58513;DHT22;44302;47.914;10.642;2022-09-23T19:53:11;11.20;99.90
58513;DHT22;44302;47.914;10.642;2022-09-23T19:55:38;11.30;99.90
58513;DHT22;44302;47.914;10.642;2022-09-23T19:58:04;11.20;99.90
58513;DHT22;44302;47.914;10.642;2022-09-23T20:00:30;11.20;99.90
58513;DHT22;44302;47.914;10.642;2022-09-23T20:02:56;11.20;99.90
58513;DHT22;44302;47.914;10.642;2022-09-23T20:05:22;11.20;99.90
58513;DHT22;44302;47.914;10.642;2022-09-23T20:07:48;11.20;99.90
58513;DHT22;44302;47.914;10.642;2022-09-23T20:10:14;11.30;99.90
58513;DHT22;44302;47.914;10.642;2022-09-23T20:12:40;11.30;99.90
58513;DHT22;44302;47.914;10.642;2022-09-23T20:15:07;11.30;99.90
58513;DHT22;44302;47.914;10.642;2022-09-23T20:17:33;11.30;99.90
58513;DHT22;44302;47.914;10.642;2022-09-23T20:19:59;11.30;99.90
58513;DHT22;44302;47.914;10.642;2022-09-23T20:22:25;11.30;99.90
58513;DHT22;44302;47.914;10.642;2022-09-23T20:24:55;11.30;99.90
58513;DHT22;44302;47.914;10.642;2022-09-23T20:27:22;11.30;99.90
58513;DHT22;44302;47.914;10.642;2022-09-23T20:29:47;11.40;99.90
58513;DHT22;44302;47.914;10.642;2022-09-23T20:32:14;11.40;99.90
58513;DHT22;44302;47.914;10.642;2022-09-23T20:34:39;11.40;99.90
58513;DHT22;44302;47.914;10.642;2022-09-23T20:37:09;11.40;99.90
58513;DHT22;44302;47.914;10.642;2022-09-23T20:39:35;11.40;99.90
58513;DHT22;44302;47.914;10.642;2022-09-23T20:42:01;11.40;99.90
58513;DHT22;44302;47.914;10.642;2022-09-23T20:44:27;11.40;99.90
58513;DHT22;44302;47.914;10.642;2022-09-23T20:46:53;11.50;99.90
58513;DHT22;44302;47.914;10.642;2022-09-23T20:49:19;11.50;99.90
58513;DHT22;44302;47.914;10.642;2022-09-23T20:51:48;11.50;99.90
58513;DHT22;44302;47.914;10.642;2022-09-23T20:54:16;11.50;99.90
58513;DHT22;44302;47.914;10.642;2022-09-23T20:56:43;11.40;99.90
58513;DHT22;44302;47.914;10.642;2022-09-23T20:59:09;11.40;99.90
58513;DHT22;44302;47.914;10.642;2022-09-23T21:01:40;11.40;99.90
58513;DHT22;44302;47.914;10.642;2022-09-23T21:04:05;11.40;99.90
58513;DHT22;44302;47.914;10.642;2022-09-23T21:06:36;11.40;99.90
58513;DHT22;44302;47.914;10.642;2022-09-23T21:09:02;11.40;99.90
58513;DHT22;44302;47.914;10.642;2022-09-23T21:11:28;11.40;99.90
58513;DHT22;44302;47.914;10.642;2022-09-23T21:13:54;11.40;99.90
58513;DHT22;44302;47.914;10.642;2022-09-23T21:16:21;11.40;99.90
58513;DHT22;44302;47.914;10.642;2022-09-23T21:18:48;11.40;99.90
58513;DHT22;44302;47.914;10.642;2022-09-23T21:21:14;11.40;99.90
58513;DHT22;44302;47.914;10.642;2022-09-23T21:23:42;11.40;99.90
58513;DHT22;44302;47.914;10.642;2022-09-23T21:26:22;11.40;99.90
58513;DHT22;44302;47.914;10.642;2022-09-23T21:28:51;11.40;99.90
58513;DHT22;44302;47.914;10.642;2022-09-23T21:31:22;11.50;99.90
58513;DHT22;44302;47.914;10.642;2022-09-23T21:33:57;11.40;99.90
58513;DHT22;44302;47.914;10.642;2022-09-23T21:36:31;11.50;99.90
58513;DHT22;44302;47.914;10.642;2022-09-23T21:38:57;11.40;99.90
58513;DHT22;44302;47.914;10.642;2022-09-23T21:41:26;11.50;99.90
58513;DHT22;44302;47.914;10.642;2022-09-23T21:43:52;11.50;99.90
58513;DHT22;44302;47.914;10.642;2022-09-23T21:46:20;11.50;99.90
58513;DHT22;44302;47.914;10.642;2022-09-23T21:48:49;11.40;99.90
58513;DHT22;44302;47.914;10.642;2022-09-23T21:51:25;11.40;99.90
58513;DHT22;44302;47.914;10.642;2022-09-23T21:53:53;11.40;99.90
58513;DHT22;44302;47.914;10.642;2022-09-23T21:56:29;11.40;99.90
58513;DHT22;44302;47.914;10.642;2022-09-23T21:58:57;11.40;99.90
58513;DHT22;44302;47.914;10.642;2022-09-23T22:01:28;11.40;99.90
58513;DHT22;44302;47.914;10.642;2022-09-23T22:03:56;11.40;99.90
58513;DHT22;44302;47.914;10.642;2022-09-23T22:06:27;11.40;99.90
58513;DHT22;44302;47.914;10.642;2022-09-23T22:08:57;11.40;99.90
58513;DHT22;44302;47.914;10.642;2022-09-23T22:11:31;11.40;99.90
58513;DHT22;44302;47.914;10.642;2022-09-23T22:14:16;11.40;99.90
58513;DHT22;44302;47.914;10.642;2022-09-23T22:16:43;11.40;99.90
58513;DHT22;44302;47.914;10.642;2022-09-23T22:19:10;11.40;99.90
58513;DHT22;44302;47.914;10.642;2022-09-23T22:21:38;11.40;99.90
58513;DHT22;44302;47.914;10.642;2022-09-23T22:24:06;11.40;99.90
58513;DHT22;44302;47.914;10.642;2022-09-23T22:26:43;11.40;99.90
58513;DHT22;44302;47.914;10.642;2022-09-23T22:29:11;11.40;99.90
58513;DHT22;44302;47.914;10.642;2022-09-23T22:31:55;11.40;99.90
58513;DHT22;44302;47.914;10.642;2022-09-23T22:34:39;11.40;99.90
58513;DHT22;44302;47.914;10.642;2022-09-23T22:37:11;11.30;99.90
58513;DHT22;44302;47.914;10.642;2022-09-23T22:39:37;11.30;99.90
58513;DHT22;44302;47.914;10.642;2022-09-23T22:42:03;11.30;99.90
58513;DHT22;44302;47.914;10.642;2022-09-23T22:44:30;11.30;99.90
58513;DHT22;44302;47.914;10.642;2022-09-23T22:46:57;11.30;99.90
58513;DHT22;44302;47.914;10.642;2022-09-23T22:49:23;11.30;99.90
58513;DHT22;44302;47.914;10.642;2022-09-23T22:51:49;11.30;99.90
58513;DHT22;44302;47.914;10.642;2022-09-23T22:54:20;11.30;99.90
58513;DHT22;44302;47.914;10.642;2022-09-23T22:56:46;11.30;99.90
58513;DHT22;44302;47.914;10.642;2022-09-23T22:59:12;11.40;99.90
58513;DHT22;44302;47.914;10.642;2022-09-23T23:01:39;11.40;99.90
58513;DHT22;44302;47.914;10.642;2022-09-23T23:04:05;11.40;99.90
58513;DHT22;44302;47.914;10.642;2022-09-23T23:06:35;11.40;99.90
58513;DHT22;44302;47.914;10.642;2022-09-23T23:09:09;11.40;99.90
58513;DHT22;44302;47.914;10.642;2022-09-23T23:11:35;11.40;99.90
58513;DHT22;44302;47.914;10.642;2022-09-23T23:14:02;11.40;99.90
58513;DHT22;44302;47.914;10.642;2022-09-23T23:16:29;11.40;99.90
58513;DHT22;44302;47.914;10.642;2022-09-23T23:18:58;11.40;99.90
58513;DHT22;44302;47.914;10.642;2022-09-23T23:21:23;11.40;99.90
58513;DHT22;44302;47.914;10.642;2022-09-23T23:23:51;11.40;99.90
58513;DHT22;44302;47.914;10.642;2022-09-23T23:26:22;11.40;99.90
58513;DHT22;44302;47.914;10.642;2022-09-23T23:28:49;11.40;99.90
58513;DHT22;44302;47.914;10.642;2022-09-23T23:31:17;11.50;99.90
58513;DHT22;44302;47.914;10.642;2022-09-23T23:33:44;11.50;99.90
58513;DHT22;44302;47.914;10.642;2022-09-23T23:36:12;11.50;99.90
58513;DHT22;44302;47.914;10.642;2022-09-23T23:38:39;11.40;99.90
58513;DHT22;44302;47.914;10.642;2022-09-23T23:41:08;11.40;99.90
58513;DHT22;44302;47.914;10.642;2022-09-23T23:43:37;11.40;99.90
58513;DHT22;44302;47.914;10.642;2022-09-23T23:46:04;11.40;99.90
58513;DHT22;44302;47.914;10.642;2022-09-23T23:48:32;11.40;99.90
58513;DHT22;44302;47.914;10.642;2022-09-23T23:50:59;11.40;99.90
58513;DHT22;44302;47.914;10.642;2022-09-23T23:53:28;11.40;99.90